createdAt,value
2016-08-21T00:00:24.218Z,14.73
2016-08-21T00:01:23.487Z,14.73
2016-08-21T00:02:24.172Z,14.65
2016-08-21T00:03:24.119Z,14.72
2016-08-21T00:04:24.087Z,14.73
2016-08-21T00:05:22.663Z,14.65
2016-08-21T00:06:24.021Z,14.7
2016-08-21T00:07:23.986Z,14.75
2016-08-21T00:08:23.254Z,14.69
2016-08-21T00:09:23.924Z,14.68
2016-08-21T00:10:23.885Z,14.73
2016-08-21T00:11:23.861Z,14.65
2016-08-21T00:12:23.821Z,14.69
2016-08-21T00:13:23.093Z,14.55
2016-08-21T00:14:23.059Z,14.64
2016-08-21T00:15:23.725Z,14.57
2016-08-21T00:16:22.999Z,14.69
2016-08-21T00:17:23.656Z,14.58
2016-08-21T00:18:22.238Z,14.58
2016-08-21T00:19:22.893Z,14.6
2016-08-21T00:20:22.169Z,14.68
2016-08-21T00:21:23.528Z,14.57
2016-08-21T00:22:22.103Z,14.57
2016-08-21T00:23:23.463Z,14.65
2016-08-21T00:24:23.434Z,14.58
2016-08-21T00:25:23.397Z,14.58
2016-08-21T00:26:22.675Z,14.62
2016-08-21T00:27:23.329Z,14.57
2016-08-21T00:28:23.315Z,14.61
2016-08-21T00:29:22.565Z,14.58
2016-08-21T00:30:23.230Z,14.57
2016-08-21T00:31:22.502Z,14.54
2016-08-21T00:32:23.168Z,14.62
2016-08-21T00:33:23.131Z,14.57
2016-08-21T00:34:22.405Z,14.61
2016-08-21T00:35:23.068Z,14.6
2016-08-21T00:36:22.343Z,14.55
2016-08-21T00:37:23.007Z,14.6
2016-08-21T00:38:22.966Z,14.6
2016-08-21T00:39:22.952Z,14.58
2016-08-21T00:40:22.902Z,14.58
2016-08-21T00:41:22.177Z,14.58
2016-08-21T00:42:22.142Z,14.58
2016-08-21T00:43:22.105Z,14.55
2016-08-21T00:44:22.075Z,14.58
2016-08-21T00:45:22.037Z,14.54
2016-08-21T00:46:22.712Z,14.6
2016-08-21T00:47:22.671Z,14.55
2016-08-21T00:48:22.638Z,14.6
2016-08-21T00:49:21.909Z,14.58
2016-08-21T00:50:22.574Z,14.57
2016-08-21T00:51:22.546Z,14.65
2016-08-21T00:52:22.502Z,14.58
2016-08-21T00:53:22.470Z,14.55
2016-08-21T00:54:22.439Z,14.55
2016-08-21T00:55:22.408Z,14.58
2016-08-21T00:56:21.678Z,14.6
2016-08-21T00:57:22.348Z,14.58
2016-08-21T00:58:22.309Z,14.6
2016-08-21T00:59:21.590Z,14.57
2016-08-21T01:00:22.241Z,14.57
2016-08-21T01:01:21.512Z,14.58
2016-08-21T01:02:22.176Z,14.65
2016-08-21T01:03:22.142Z,14.64
2016-08-21T01:04:22.112Z,14.58
2016-08-21T01:05:21.377Z,14.57
2016-08-21T01:06:22.045Z,14.55
2016-08-21T01:07:22.023Z,14.57
2016-08-21T01:08:21.980Z,14.54
2016-08-21T01:09:21.948Z,14.57
2016-08-21T01:10:21.221Z,14.58
2016-08-21T01:11:21.182Z,14.54
2016-08-21T01:12:20.458Z,14.58
2016-08-21T01:13:21.818Z,14.58
2016-08-21T01:14:21.087Z,14.58
2016-08-21T01:15:21.050Z,14.6
2016-08-21T01:16:21.717Z,14.61
2016-08-21T01:17:21.007Z,14.64
2016-08-21T01:18:20.261Z,14.61
2016-08-21T01:19:20.924Z,14.55
2016-08-21T01:20:21.588Z,14.57
2016-08-21T01:21:20.860Z,14.57
2016-08-21T01:22:20.123Z,14.61
2016-08-21T01:23:21.486Z,14.57
2016-08-21T01:24:21.456Z,14.6
2016-08-21T01:25:21.417Z,14.6
2016-08-21T01:26:21.386Z,14.61
2016-08-21T01:27:20.656Z,14.55
2016-08-21T01:28:21.323Z,14.62
2016-08-21T01:29:21.287Z,14.57
2016-08-21T01:30:20.557Z,14.55
2016-08-21T01:31:21.228Z,14.61
2016-08-21T01:32:21.190Z,14.57
2016-08-21T01:33:21.160Z,14.6
2016-08-21T01:34:20.429Z,14.57
2016-08-21T01:35:21.096Z,14.64
2016-08-21T01:36:21.066Z,14.61
2016-08-21T01:37:20.338Z,14.52
2016-08-21T01:38:20.993Z,14.55
2016-08-21T01:39:20.267Z,14.54
2016-08-21T01:40:20.931Z,14.52
2016-08-21T01:41:20.195Z,14.5
2016-08-21T01:42:19.468Z,14.52
2016-08-21T01:43:20.133Z,14.42
2016-08-21T01:44:20.099Z,14.45
2016-08-21T01:45:20.064Z,14.47
2016-08-21T01:46:20.035Z,14.46
2016-08-21T01:47:20.002Z,14.45
2016-08-21T01:48:19.966Z,14.47
2016-08-21T01:49:20.631Z,14.5
2016-08-21T01:50:19.901Z,14.52
2016-08-21T01:51:19.868Z,14.47
2016-08-21T01:52:19.832Z,14.5
2016-08-21T01:53:20.501Z,14.47
2016-08-21T01:54:19.765Z,14.43
2016-08-21T01:55:19.734Z,14.46
2016-08-21T01:56:20.394Z,14.42
2016-08-21T01:57:20.367Z,14.42
2016-08-21T01:58:20.334Z,14.58
2016-08-21T01:59:20.298Z,14.45
2016-08-21T02:00:20.265Z,14.39
2016-08-21T02:01:20.241Z,14.43
2016-08-21T02:02:19.511Z,14.39
2016-08-21T02:03:20.165Z,14.43
2016-08-21T02:04:20.134Z,14.45
2016-08-21T02:05:20.105Z,14.42
2016-08-21T02:06:20.064Z,14.4
2016-08-21T02:07:20.038Z,14.39
2016-08-21T02:08:19.305Z,14.46
2016-08-21T02:09:19.972Z,14.39
2016-08-21T02:10:19.243Z,14.36
2016-08-21T02:11:19.904Z,14.37
2016-08-21T02:12:19.864Z,14.39
2016-08-21T02:13:19.838Z,14.39
2016-08-21T02:14:19.102Z,14.39
2016-08-21T02:15:19.770Z,14.42
2016-08-21T02:16:19.736Z,14.39
2016-08-21T02:17:19.709Z,14.4
2016-08-21T02:18:18.976Z,14.42
2016-08-21T02:19:19.636Z,14.45
2016-08-21T02:20:18.910Z,14.4
2016-08-21T02:21:18.870Z,14.4
2016-08-21T02:22:18.837Z,14.33
2016-08-21T02:23:18.812Z,14.33
2016-08-21T02:24:19.474Z,14.36
2016-08-21T02:25:18.746Z,14.35
2016-08-21T02:26:18.707Z,14.29
2016-08-21T02:27:18.674Z,14.28
2016-08-21T02:28:18.641Z,14.29
2016-08-21T02:29:18.608Z,14.28
2016-08-21T02:30:18.582Z,14.27
2016-08-21T02:31:19.237Z,14.21
2016-08-21T02:32:19.203Z,14.21
2016-08-21T02:33:19.182Z,14.22
2016-08-21T02:34:19.138Z,14.21
2016-08-21T02:35:19.104Z,14.15
2016-08-21T02:36:18.374Z,14.14
2016-08-21T02:37:18.344Z,14.14
2016-08-21T02:38:19.029Z,14.15
2016-08-21T02:39:18.279Z,14.04
2016-08-21T02:40:18.939Z,13.91
2016-08-21T02:41:18.908Z,14
2016-08-21T02:42:18.175Z,13.92
2016-08-21T02:43:18.146Z,13.95
2016-08-21T02:44:18.804Z,13.95
2016-08-21T02:45:18.076Z,13.89
2016-08-21T02:46:18.736Z,13.92
2016-08-21T02:47:18.706Z,13.81
2016-08-21T02:48:17.977Z,13.81
2016-08-21T02:49:17.938Z,13.79
2016-08-21T02:50:17.211Z,13.77
2016-08-21T02:51:18.570Z,13.67
2016-08-21T02:52:17.194Z,13.66
2016-08-21T02:53:18.507Z,13.7
2016-08-21T02:54:18.472Z,13.66
2016-08-21T02:55:18.440Z,13.66
2016-08-21T02:56:17.709Z,13.57
2016-08-21T02:57:18.370Z,13.62
2016-08-21T02:58:17.649Z,13.59
2016-08-21T02:59:18.304Z,13.51
2016-08-21T03:00:18.275Z,13.59
2016-08-21T03:01:18.237Z,13.46
2016-08-21T03:02:17.507Z,13.46
2016-08-21T03:03:18.171Z,13.42
2016-08-21T03:04:18.135Z,13.38
2016-08-21T03:05:17.409Z,13.36
2016-08-21T03:06:16.674Z,13.32
2016-08-21T03:07:18.041Z,13.28
2016-08-21T03:08:17.998Z,13.29
2016-08-21T03:09:17.273Z,13.14
2016-08-21T03:10:17.935Z,13.22
2016-08-21T03:11:17.205Z,13.2
2016-08-21T03:12:17.865Z,13.17
2016-08-21T03:13:17.136Z,13.11
2016-08-21T03:14:17.104Z,13.14
2016-08-21T03:15:17.083Z,13.12
2016-08-21T03:16:17.733Z,13.07
2016-08-21T03:17:17.708Z,13.08
2016-08-21T03:18:16.966Z,13.07
2016-08-21T03:19:16.939Z,13.07
2016-08-21T03:20:17.600Z,13.07
2016-08-21T03:21:17.563Z,13.1
2016-08-21T03:22:17.544Z,13
2016-08-21T03:23:17.496Z,13.01
2016-08-21T03:24:17.462Z,13.01
2016-08-21T03:25:16.731Z,12.93
2016-08-21T03:26:15.997Z,13.04
2016-08-21T03:27:16.669Z,13.05
2016-08-21T03:28:17.326Z,13.01
2016-08-21T03:29:17.290Z,13.03
2016-08-21T03:30:17.262Z,13.07
2016-08-21T03:31:16.523Z,13
2016-08-21T03:32:16.492Z,12.97
2016-08-21T03:33:16.455Z,12.97
2016-08-21T03:34:17.123Z,12.92
2016-08-21T03:35:17.097Z,12.96
2016-08-21T03:36:17.065Z,12.89
2016-08-21T03:37:17.029Z,12.89
2016-08-21T03:38:16.289Z,12.89
2016-08-21T03:39:16.955Z,12.78
2016-08-21T03:40:16.914Z,12.77
2016-08-21T03:41:16.886Z,12.82
2016-08-21T03:42:16.849Z,12.79
2016-08-21T03:43:16.115Z,12.77
2016-08-21T03:44:16.087Z,12.79
2016-08-21T03:45:16.049Z,12.74
2016-08-21T03:46:16.018Z,12.67
2016-08-21T03:47:16.684Z,12.67
2016-08-21T03:48:16.648Z,12.6
2016-08-21T03:49:15.915Z,12.59
2016-08-21T03:50:16.576Z,12.6
2016-08-21T03:51:15.852Z,12.64
2016-08-21T03:52:16.520Z,12.65
2016-08-21T03:53:16.471Z,12.62
2016-08-21T03:54:15.741Z,12.67
2016-08-21T03:55:16.408Z,12.64
2016-08-21T03:56:16.365Z,12.5
2016-08-21T03:57:16.343Z,12.54
2016-08-21T03:58:15.614Z,12.54
2016-08-21T03:59:16.270Z,12.59
2016-08-21T04:00:16.237Z,12.57
2016-08-21T04:01:16.198Z,12.53
2016-08-21T04:02:16.170Z,12.52
2016-08-21T04:03:16.137Z,12.41
2016-08-21T04:04:15.408Z,12.5
2016-08-21T04:05:15.370Z,12.52
2016-08-21T04:06:16.030Z,12.45
2016-08-21T04:07:15.998Z,12.37
2016-08-21T04:08:15.959Z,12.39
2016-08-21T04:09:15.926Z,12.46
2016-08-21T04:10:15.196Z,12.47
2016-08-21T04:11:15.157Z,12.41
2016-08-21T04:12:14.432Z,12.29
2016-08-21T04:13:15.098Z,12.27
2016-08-21T04:14:15.757Z,12.29
2016-08-21T04:15:15.724Z,12.24
2016-08-21T04:16:14.990Z,12.32
2016-08-21T04:17:15.648Z,12.34
2016-08-21T04:18:15.621Z,12.34
2016-08-21T04:19:14.884Z,12.34
2016-08-21T04:20:14.853Z,12.38
2016-08-21T04:21:14.822Z,12.27
2016-08-21T04:22:15.477Z,12.29
2016-08-21T04:23:14.082Z,12.31
2016-08-21T04:24:14.714Z,12.31
2016-08-21T04:25:14.680Z,12.29
2016-08-21T04:26:15.345Z,12.19
2016-08-21T04:27:14.617Z,12.34
2016-08-21T04:28:15.273Z,12.29
2016-08-21T04:29:14.543Z,12.29
2016-08-21T04:30:13.819Z,12.34
2016-08-21T04:31:15.169Z,12.31
2016-08-21T04:32:13.749Z,12.45
2016-08-21T04:33:15.099Z,12.49
2016-08-21T04:34:14.372Z,12.39
2016-08-21T04:35:15.037Z,12.47
2016-08-21T04:36:15.000Z,12.53
2016-08-21T04:37:14.971Z,12.57
2016-08-21T04:38:14.935Z,12.59
2016-08-21T04:39:13.507Z,12.71
2016-08-21T04:40:14.862Z,12.67
2016-08-21T04:41:14.139Z,12.75
2016-08-21T04:42:14.799Z,12.78
2016-08-21T04:43:14.065Z,12.75
2016-08-21T04:44:14.728Z,12.85
2016-08-21T04:45:14.694Z,12.87
2016-08-21T04:46:14.660Z,12.96
2016-08-21T04:47:14.636Z,13
2016-08-21T04:48:13.892Z,12.96
2016-08-21T04:49:14.556Z,13.01
2016-08-21T04:50:14.523Z,13.07
2016-08-21T04:51:14.489Z,13.05
2016-08-21T04:52:14.452Z,13.08
2016-08-21T04:53:13.031Z,13.12
2016-08-21T04:54:14.394Z,13.11
2016-08-21T04:55:14.354Z,13.12
2016-08-21T04:56:13.624Z,13.25
2016-08-21T04:57:13.583Z,13.22
2016-08-21T04:58:14.254Z,13.22
2016-08-21T04:59:14.218Z,13.26
2016-08-21T05:00:14.192Z,13.3
2016-08-21T05:01:13.461Z,13.29
2016-08-21T05:02:14.115Z,13.32
2016-08-21T05:03:13.386Z,13.39
2016-08-21T05:04:13.348Z,13.32
2016-08-21T05:05:14.011Z,13.41
2016-08-21T05:06:13.288Z,13.45
2016-08-21T05:07:13.942Z,13.39
2016-08-21T05:08:13.917Z,13.49
2016-08-21T05:09:13.880Z,13.44
2016-08-21T05:10:13.845Z,13.55
2016-08-21T05:11:13.811Z,13.51
2016-08-21T05:12:13.780Z,13.51
2016-08-21T05:13:13.743Z,13.64
2016-08-21T05:14:13.709Z,13.6
2016-08-21T05:15:13.690Z,13.7
2016-08-21T05:16:12.945Z,13.66
2016-08-21T05:17:12.915Z,13.67
2016-08-21T05:18:13.576Z,13.81
2016-08-21T05:19:12.844Z,13.77
2016-08-21T05:20:12.810Z,13.84
2016-08-21T05:21:13.474Z,13.87
2016-08-21T05:22:13.440Z,13.87
2016-08-21T05:23:13.410Z,13.91
2016-08-21T05:24:12.673Z,13.91
2016-08-21T05:25:12.648Z,13.91
2016-08-21T05:26:12.610Z,13.85
2016-08-21T05:27:13.278Z,13.92
2016-08-21T05:28:13.240Z,13.92
2016-08-21T05:29:13.208Z,13.96
2016-08-21T05:30:12.485Z,13.95
2016-08-21T05:31:12.444Z,13.97
2016-08-21T05:32:12.426Z,13.96
2016-08-21T05:33:13.071Z,13.92
2016-08-21T05:34:12.344Z,14
2016-08-21T05:35:13.009Z,13.96
2016-08-21T05:36:12.973Z,13.99
2016-08-21T05:37:12.243Z,13.91
2016-08-21T05:38:12.909Z,13.96
2016-08-21T05:39:12.181Z,13.97
2016-08-21T05:40:11.444Z,13.97
2016-08-21T05:41:12.111Z,13.96
2016-08-21T05:42:12.769Z,13.96
2016-08-21T05:43:12.742Z,13.91
2016-08-21T05:44:12.009Z,13.99
2016-08-21T05:45:12.676Z,13.89
2016-08-21T05:46:11.939Z,14
2016-08-21T05:47:12.605Z,14
2016-08-21T05:48:12.574Z,13.99
2016-08-21T05:49:12.542Z,14.12
2016-08-21T05:50:12.503Z,14.03
2016-08-21T05:51:11.778Z,14.15
2016-08-21T05:52:12.442Z,14.04
2016-08-21T05:53:11.719Z,14.1
2016-08-21T05:54:11.676Z,14.17
2016-08-21T05:55:12.340Z,14.24
2016-08-21T05:56:11.613Z,14.22
2016-08-21T05:57:12.278Z,14.27
2016-08-21T05:58:12.243Z,14.24
2016-08-21T05:59:12.207Z,14.24
2016-08-21T06:00:11.480Z,14.27
2016-08-21T06:01:10.748Z,14.27
2016-08-21T06:02:12.113Z,14.29
2016-08-21T06:03:12.087Z,14.33
2016-08-21T06:04:12.040Z,14.29
2016-08-21T06:05:11.316Z,14.33
2016-08-21T06:06:11.278Z,14.36
2016-08-21T06:07:11.246Z,14.39
2016-08-21T06:08:11.910Z,14.37
2016-08-21T06:09:11.876Z,14.4
2016-08-21T06:10:11.842Z,14.45
2016-08-21T06:11:11.116Z,14.55
2016-08-21T06:12:11.079Z,14.6
2016-08-21T06:13:11.049Z,14.58
2016-08-21T06:14:11.014Z,14.65
2016-08-21T06:15:11.679Z,14.69
2016-08-21T06:16:11.649Z,14.75
2016-08-21T06:17:10.925Z,14.75
2016-08-21T06:18:10.187Z,14.8
2016-08-21T06:19:10.152Z,14.86
2016-08-21T06:20:11.530Z,14.95
2016-08-21T06:21:11.484Z,14.88
2016-08-21T06:22:11.447Z,14.99
2016-08-21T06:23:10.723Z,15.03
2016-08-21T06:24:09.991Z,15.09
2016-08-21T06:25:10.659Z,15.16
2016-08-21T06:26:11.317Z,15.35
2016-08-21T06:27:11.283Z,15.32
2016-08-21T06:28:09.860Z,15.35
2016-08-21T06:29:11.221Z,15.38
2016-08-21T06:30:10.492Z,15.38
2016-08-21T06:31:11.159Z,15.34
2016-08-21T06:32:10.425Z,15.39
2016-08-21T06:33:11.094Z,15.36
2016-08-21T06:34:09.663Z,15.32
2016-08-21T06:35:11.028Z,15.38
2016-08-21T06:36:10.296Z,15.35
2016-08-21T06:37:10.961Z,15.34
2016-08-21T06:38:10.931Z,15.29
2016-08-21T06:39:10.200Z,15.34
2016-08-21T06:40:10.166Z,15.35
2016-08-21T06:41:10.833Z,15.39
2016-08-21T06:42:10.116Z,15.46
2016-08-21T06:43:10.769Z,15.53
2016-08-21T06:44:10.040Z,15.56
2016-08-21T06:45:10.703Z,15.6
2016-08-21T06:46:10.668Z,15.75
2016-08-21T06:47:10.634Z,15.8
2016-08-21T06:48:09.905Z,15.87
2016-08-21T06:49:09.180Z,16.05
2016-08-21T06:50:10.540Z,16.2
2016-08-21T06:51:10.512Z,16.24
2016-08-21T06:52:10.486Z,16.3
2016-08-21T06:53:09.751Z,16.3
2016-08-21T06:54:10.406Z,16.39
2016-08-21T06:55:10.382Z,16.41
2016-08-21T06:56:10.344Z,16.42
2016-08-21T06:57:10.315Z,16.39
2016-08-21T06:58:10.288Z,16.38
2016-08-21T06:59:09.555Z,16.34
2016-08-21T07:00:10.232Z,16.33
2016-08-21T07:01:10.193Z,16.33
2016-08-21T07:02:09.457Z,16.24
2016-08-21T07:03:10.127Z,16.38
2016-08-21T07:04:10.116Z,16.41
2016-08-21T07:05:10.065Z,16.43
2016-08-21T07:06:10.033Z,16.39
2016-08-21T07:07:10.010Z,16.35
2016-08-21T07:08:09.971Z,16.48
2016-08-21T07:09:09.941Z,16.52
2016-08-21T07:10:09.903Z,16.52
2016-08-21T07:11:09.876Z,16.48
2016-08-21T07:12:09.154Z,16.45
2016-08-21T07:13:09.116Z,16.38
2016-08-21T07:14:09.787Z,16.35
2016-08-21T07:15:09.747Z,16.35
2016-08-21T07:16:09.715Z,16.39
2016-08-21T07:17:09.686Z,16.3
2016-08-21T07:18:09.661Z,16.35
2016-08-21T07:19:08.931Z,16.34
2016-08-21T07:20:09.593Z,16.28
2016-08-21T07:21:09.556Z,16.38
2016-08-21T07:22:09.526Z,16.23
2016-08-21T07:23:09.491Z,16.24
2016-08-21T07:24:09.463Z,16.27
2016-08-21T07:25:09.432Z,16.24
2016-08-21T07:26:09.396Z,16.28
2016-08-21T07:27:09.366Z,16.28
2016-08-21T07:28:08.636Z,16.38
2016-08-21T07:29:09.302Z,16.3
2016-08-21T07:30:08.573Z,16.28
2016-08-21T07:31:09.239Z,16.38
2016-08-21T07:32:08.524Z,16.46
2016-08-21T07:33:09.182Z,16.53
2016-08-21T07:34:09.149Z,16.67
2016-08-21T07:35:09.114Z,16.73
2016-08-21T07:36:08.391Z,16.81
2016-08-21T07:37:09.050Z,16.98
2016-08-21T07:38:09.020Z,17.03
2016-08-21T07:39:07.594Z,17.04
2016-08-21T07:40:08.261Z,17.12
2016-08-21T07:41:08.240Z,17.19
2016-08-21T07:42:08.196Z,17.3
2016-08-21T07:43:08.172Z,17.37
2016-08-21T07:44:09.070Z,17.37
2016-08-21T07:45:08.805Z,17.31
2016-08-21T07:46:08.072Z,17.4
2016-08-21T07:47:08.737Z,17.41
2016-08-21T07:48:08.011Z,17.43
2016-08-21T07:49:07.981Z,17.55
2016-08-21T07:50:07.251Z,17.56
2016-08-21T07:51:08.614Z,17.59
2016-08-21T07:52:08.598Z,17.7
2016-08-21T07:53:08.549Z,17.72
2016-08-21T07:54:08.523Z,17.68
2016-08-21T07:55:07.801Z,17.82
2016-08-21T07:56:08.459Z,17.86
2016-08-21T07:57:08.429Z,17.82
2016-08-21T07:58:07.006Z,17.82
2016-08-21T07:59:08.367Z,17.9
2016-08-21T08:00:07.644Z,17.9
2016-08-21T08:01:08.310Z,18
2016-08-21T08:02:07.576Z,17.95
2016-08-21T08:03:06.857Z,17.99
2016-08-21T08:04:08.217Z,17.96
2016-08-21T08:05:07.497Z,18.02
2016-08-21T08:06:08.149Z,18.1
2016-08-21T08:07:07.425Z,18.02
2016-08-21T08:08:08.093Z,18.08
2016-08-21T08:09:07.361Z,18.03
2016-08-21T08:10:07.342Z,18.14
2016-08-21T08:11:08.003Z,18.21
2016-08-21T08:12:07.972Z,18.18
2016-08-21T08:13:07.938Z,18.36
2016-08-21T08:14:07.908Z,18.44
2016-08-21T08:15:07.879Z,18.57
2016-08-21T08:16:07.849Z,18.75
2016-08-21T08:17:06.422Z,18.87
2016-08-21T08:18:07.794Z,19.07
2016-08-21T08:19:07.065Z,19.18
2016-08-21T08:20:07.728Z,19.21
2016-08-21T08:21:06.305Z,19.25
2016-08-21T08:22:07.670Z,19.31
2016-08-21T08:23:06.938Z,19.37
2016-08-21T08:24:07.605Z,19.36
2016-08-21T08:25:06.882Z,19.4
2016-08-21T08:26:07.544Z,19.41
2016-08-21T08:27:06.821Z,19.36
2016-08-21T08:28:07.490Z,19.43
2016-08-21T08:29:07.456Z,19.43
2016-08-21T08:30:07.427Z,19.43
2016-08-21T08:31:07.399Z,19.36
2016-08-21T08:32:07.365Z,19.29
2016-08-21T08:33:07.343Z,19.23
2016-08-21T08:34:06.632Z,19.23
2016-08-21T08:35:06.583Z,19.25
2016-08-21T08:36:07.249Z,19.32
2016-08-21T08:37:06.527Z,19.28
2016-08-21T08:38:07.192Z,19.28
2016-08-21T08:39:07.165Z,19.22
2016-08-21T08:40:07.142Z,19.29
2016-08-21T08:41:06.402Z,19.32
2016-08-21T08:42:05.681Z,19.5
2016-08-21T08:43:07.045Z,19.68
2016-08-21T08:44:06.316Z,19.83
2016-08-21T08:45:06.988Z,20.06
2016-08-21T08:46:06.954Z,20.32
2016-08-21T08:47:06.231Z,20.41
2016-08-21T08:48:07.127Z,20.52
2016-08-21T08:49:06.866Z,20.72
2016-08-21T08:50:06.140Z,21.01
2016-08-21T08:51:06.130Z,21.25
2016-08-21T08:52:06.784Z,21.92
2016-08-21T08:53:06.058Z,22.51
2016-08-21T08:54:06.721Z,22.73
2016-08-21T08:55:06.695Z,22.85
2016-08-21T08:56:06.669Z,22.94
2016-08-21T08:57:05.949Z,22.98
2016-08-21T08:58:05.217Z,22.91
2016-08-21T08:59:06.579Z,22.76
2016-08-21T09:00:06.566Z,22.45
2016-08-21T09:01:06.527Z,22.37
2016-08-21T09:02:06.506Z,22.17
2016-08-21T09:03:05.776Z,22.07
2016-08-21T09:04:05.756Z,21.9
2016-08-21T09:05:06.438Z,21.9
2016-08-21T09:06:06.384Z,22.02
2016-08-21T09:07:06.363Z,21.96
2016-08-21T09:08:05.652Z,22.07
2016-08-21T09:09:04.909Z,22.36
2016-08-21T09:10:06.279Z,22.51
2016-08-21T09:11:06.250Z,22.88
2016-08-21T09:12:05.525Z,23.13
2016-08-21T09:13:06.193Z,23.8
2016-08-21T09:14:06.166Z,24.93
2016-08-21T09:15:06.149Z,26.18
2016-08-21T09:16:06.115Z,27.34
2016-08-21T09:17:05.388Z,27.96
2016-08-21T09:18:05.366Z,28.29
2016-08-21T09:19:06.035Z,28.54
2016-08-21T09:20:04.620Z,28.89
2016-08-21T09:21:05.289Z,29
2016-08-21T09:22:05.961Z,28.96
2016-08-21T09:23:05.235Z,28.58
2016-08-21T09:24:05.217Z,28.49
2016-08-21T09:25:05.186Z,28.61
2016-08-21T09:26:05.869Z,28.51
2016-08-21T09:27:05.840Z,28.34
2016-08-21T09:28:05.116Z,28.36
2016-08-21T09:29:05.785Z,28.58
2016-08-21T09:30:05.072Z,28.17
2016-08-21T09:31:05.043Z,27.79
2016-08-21T09:32:05.717Z,27.29
2016-08-21T09:33:05.789Z,26.82
2016-08-21T09:34:04.977Z,26.39
2016-08-21T09:35:05.650Z,26.1
2016-08-21T09:36:05.619Z,25.79
2016-08-21T09:37:04.901Z,25.58
2016-08-21T09:38:04.867Z,25.4
2016-08-21T09:39:04.848Z,25.25
2016-08-21T09:40:04.822Z,25.21
2016-08-21T09:41:05.504Z,25.27
2016-08-21T09:42:05.470Z,25.17
2016-08-21T09:43:05.454Z,25.15
2016-08-21T09:44:05.440Z,25.08
2016-08-21T09:45:05.402Z,24.9
2016-08-21T09:46:03.988Z,24.68
2016-08-21T09:47:05.340Z,24.45
2016-08-21T09:48:04.635Z,24.32
2016-08-21T09:49:04.597Z,24.24
2016-08-21T09:50:05.267Z,24.21
2016-08-21T09:51:04.549Z,24.08
2016-08-21T09:52:04.523Z,24.09
2016-08-21T09:53:04.503Z,23.97
2016-08-21T09:54:04.470Z,24.05
2016-08-21T09:55:05.150Z,24.15
2016-08-21T09:56:04.421Z,24.28
2016-08-21T09:57:04.392Z,24.37
2016-08-21T09:58:05.063Z,24.4
2016-08-21T09:59:05.036Z,24.47
2016-08-21T10:00:05.009Z,24.47
2016-08-21T10:01:04.988Z,24.3
2016-08-21T10:02:04.261Z,24.18
2016-08-21T10:03:04.934Z,24.16
2016-08-21T10:04:04.213Z,24.08
2016-08-21T10:05:04.192Z,24.03
2016-08-21T10:06:04.857Z,24.09
2016-08-21T10:07:04.841Z,24.05
2016-08-21T10:08:04.805Z,24.02
2016-08-21T10:09:04.776Z,24.06
2016-08-21T10:10:04.755Z,24.03
2016-08-21T10:11:03.329Z,23.95
2016-08-21T10:12:03.999Z,24.37
2016-08-21T10:13:04.677Z,24.84
2016-08-21T10:14:03.947Z,25.2
2016-08-21T10:15:03.938Z,25.27
2016-08-21T10:16:03.892Z,26.01
2016-08-21T10:17:04.568Z,26.97
2016-08-21T10:18:04.542Z,27.29
2016-08-21T10:19:03.820Z,28.11
2016-08-21T10:20:04.503Z,28.64
2016-08-21T10:21:04.466Z,28.44
2016-08-21T10:22:03.749Z,28.19
2016-08-21T10:23:03.719Z,27.99
2016-08-21T10:24:04.394Z,27.6
2016-08-21T10:25:03.667Z,27.22
2016-08-21T10:26:04.339Z,26.92
2016-08-21T10:27:04.324Z,26.54
2016-08-21T10:28:03.597Z,26.25
2016-08-21T10:29:03.571Z,26.95
2016-08-21T10:30:04.247Z,27.9
2016-08-21T10:31:03.521Z,28.3
2016-08-21T10:32:04.196Z,28.56
2016-08-21T10:33:03.482Z,28.78
2016-08-21T10:34:03.449Z,28.95
2016-08-21T10:35:03.427Z,28.98
2016-08-21T10:36:04.098Z,28.96
2016-08-21T10:37:04.072Z,28.93
2016-08-21T10:38:04.044Z,28.74
2016-08-21T10:39:04.023Z,28.62
2016-08-21T10:40:03.310Z,28.41
2016-08-21T10:41:03.974Z,28.31
2016-08-21T10:42:03.950Z,28.17
2016-08-21T10:43:03.234Z,28.12
2016-08-21T10:44:03.903Z,28.03
2016-08-21T10:45:02.488Z,28
2016-08-21T10:46:02.466Z,27.72
2016-08-21T10:47:03.830Z,27.66
2016-08-21T10:48:03.111Z,27.81
2016-08-21T10:49:02.402Z,28.46
2016-08-21T10:50:03.758Z,29.27
2016-08-21T10:51:03.734Z,30.42
2016-08-21T10:52:03.029Z,31.07
2016-08-21T10:53:02.992Z,31.93
2016-08-21T10:54:02.278Z,32.29
2016-08-21T10:55:02.949Z,33.09
2016-08-21T10:56:02.924Z,33.91
2016-08-21T10:57:03.599Z,34.81
2016-08-21T10:58:03.573Z,35.38
2016-08-21T10:59:02.873Z,35.97
2016-08-21T11:00:02.835Z,36.44
2016-08-21T11:01:03.527Z,36.83
2016-08-21T11:02:03.493Z,37.17
2016-08-21T11:03:03.467Z,37.55
2016-08-21T11:04:02.754Z,37.67
2016-08-21T11:05:03.427Z,38.07
2016-08-21T11:06:03.416Z,38.16
2016-08-21T11:07:02.688Z,38.04
2016-08-21T11:08:02.694Z,37.81
2016-08-21T11:09:03.354Z,37.69
2016-08-21T11:10:02.641Z,37.5
2016-08-21T11:11:03.313Z,37.21
2016-08-21T11:12:01.894Z,36.78
2016-08-21T11:13:03.271Z,36.35
2016-08-21T11:14:03.249Z,35.94
2016-08-21T11:15:03.236Z,35.47
2016-08-21T11:16:02.516Z,35.14
2016-08-21T11:17:03.192Z,34.58
2016-08-21T11:18:02.476Z,34.3
2016-08-21T11:19:03.169Z,33.97
2016-08-21T11:20:03.137Z,33.65
2016-08-21T11:21:03.116Z,33.41
2016-08-21T11:22:03.091Z,33.19
2016-08-21T11:23:03.074Z,32.82
2016-08-21T11:24:02.355Z,32.55
2016-08-21T11:25:03.022Z,32.32
2016-08-21T11:26:02.311Z,32.01
2016-08-21T11:27:02.988Z,31.56
2016-08-21T11:28:02.271Z,31.04
2016-08-21T11:29:02.952Z,30.55
2016-08-21T11:30:02.227Z,30.07
2016-08-21T11:31:02.903Z,29.64
2016-08-21T11:32:02.881Z,29.28
2016-08-21T11:33:02.860Z,28.96
2016-08-21T11:34:02.850Z,28.55
2016-08-21T11:35:02.133Z,28.33
2016-08-21T11:36:02.789Z,28.12
2016-08-21T11:37:02.770Z,27.79
2016-08-21T11:38:02.044Z,27.59
2016-08-21T11:39:02.028Z,27.13
2016-08-21T11:40:02.013Z,26.91
2016-08-21T11:41:02.680Z,26.62
2016-08-21T11:42:02.661Z,26.32
2016-08-21T11:43:02.629Z,26.12
2016-08-21T11:44:02.599Z,25.97
2016-08-21T11:45:01.883Z,25.95
2016-08-21T11:46:01.160Z,25.8
2016-08-21T11:47:02.532Z,25.77
2016-08-21T11:48:02.503Z,25.72
2016-08-21T11:49:01.088Z,25.82
2016-08-21T11:50:02.450Z,25.79
2016-08-21T11:51:01.732Z,25.9
2016-08-21T11:52:02.402Z,25.87
2016-08-21T11:53:02.378Z,25.79
2016-08-21T11:54:01.655Z,25.67
2016-08-21T11:55:01.637Z,25.61
2016-08-21T11:56:01.613Z,25.38
2016-08-21T11:57:02.274Z,25.18
2016-08-21T11:58:01.550Z,25.1
2016-08-21T11:59:02.223Z,25.03
2016-08-21T12:00:01.503Z,24.87
2016-08-21T12:01:02.169Z,24.76
2016-08-21T12:02:02.164Z,24.76
2016-08-21T12:03:02.119Z,24.6
2016-08-21T12:04:02.096Z,24.55
2016-08-21T12:05:02.065Z,24.43
2016-08-21T12:06:02.051Z,24.42
2016-08-21T12:07:01.323Z,24.34
2016-08-21T12:08:01.994Z,24.4
2016-08-21T12:09:01.263Z,24.47
2016-08-21T12:10:01.941Z,24.67
2016-08-21T12:11:01.219Z,24.71
2016-08-21T12:12:01.893Z,24.84
2016-08-21T12:13:01.871Z,24.9
2016-08-21T12:14:01.141Z,25
2016-08-21T12:15:01.108Z,25.08
2016-08-21T12:16:01.786Z,25.14
2016-08-21T12:17:01.057Z,25.13
2016-08-21T12:18:01.730Z,25.25
2016-08-21T12:19:01.701Z,25.45
2016-08-21T12:20:00.978Z,25.6
2016-08-21T12:21:01.647Z,25.61
2016-08-21T12:22:00.935Z,25.76
2016-08-21T12:23:01.599Z,25.91
2016-08-21T12:24:00.874Z,25.94
2016-08-21T12:25:00.850Z,25.85
2016-08-21T12:26:01.518Z,25.92
2016-08-21T12:27:01.496Z,25.77
2016-08-21T12:28:01.467Z,25.77
2016-08-21T12:29:00.757Z,25.76
2016-08-21T12:30:00.022Z,25.79
2016-08-21T12:31:00.691Z,25.77
2016-08-21T12:32:01.366Z,25.72
2016-08-21T12:33:00.639Z,25.73
2016-08-21T12:34:01.314Z,25.79
2016-08-21T12:35:00.584Z,25.6
2016-08-21T12:36:01.255Z,25.52
2016-08-21T12:37:01.247Z,25.52
2016-08-21T12:38:01.205Z,25.46
2016-08-21T12:39:01.183Z,25.46
2016-08-21T12:40:00.459Z,25.5
2016-08-21T12:41:01.127Z,25.32
2016-08-21T12:42:01.103Z,25.36
2016-08-21T12:43:01.073Z,25.36
2016-08-21T12:44:01.058Z,25.36
2016-08-21T12:45:00.330Z,25.36
2016-08-21T12:46:00.996Z,25.38
2016-08-21T12:47:00.277Z,25.36
2016-08-21T12:48:00.943Z,25.33
2016-08-21T12:49:00.223Z,25.35
2016-08-21T12:50:00.896Z,25.25
2016-08-21T12:51:00.173Z,25.33
2016-08-21T12:52:00.151Z,25.27
2016-08-21T12:52:59.436Z,25.13
2016-08-21T12:53:59.414Z,25.05
2016-08-21T12:55:00.064Z,24.99
2016-08-21T12:56:00.738Z,25